sensor_id;sensor_type;location;lat;lon;timestamp;pressure;altitude;pressure_sealevel;temperature;humidity
77147;BME280;66121;52.584;9.694;2023-06-22T00:01:47;101587.94;;;18.53;84.30
77147;BME280;66121;52.584;9.694;2023-06-22T00:04:12;101586.41;;;18.48;84.22
77147;BME280;66121;52.584;9.694;2023-06-22T00:06:37;101570.13;;;18.36;84.79
77147;BME280;66121;52.584;9.694;2023-06-22T00:09:02;101573.31;;;18.35;84.73
77147;BME280;66121;52.584;9.694;2023-06-22T00:11:28;101573.72;;;18.37;85.39
77147;BME280;66121;52.584;9.694;2023-06-22T00:13:53;101578.16;;;18.31;85.69
77147;BME280;66121;52.584;9.694;2023-06-22T00:16:19;101580.88;;;18.38;84.62
77147;BME280;66121;52.584;9.694;2023-06-22T00:18:44;101581.69;;;18.35;83.49
77147;BME280;66121;52.584;9.694;2023-06-22T00:21:12;101586.09;;;18.36;83.70
77147;BME280;66121;52.584;9.694;2023-06-22T00:23:38;101579.78;;;18.28;85.44
77147;BME280;66121;52.584;9.694;2023-06-22T00:26:03;101587.41;;;18.24;85.62
77147;BME280;66121;52.584;9.694;2023-06-22T00:28:28;101589.38;;;18.27;85.63
77147;BME280;66121;52.584;9.694;2023-06-22T00:30:54;101591.03;;;18.18;85.40
77147;BME280;66121;52.584;9.694;2023-06-22T00:33:19;101593.47;;;18.16;85.74
77147;BME280;66121;52.584;9.694;2023-06-22T00:35:45;101600.66;;;18.13;85.07
77147;BME280;66121;52.584;9.694;2023-06-22T00:38:10;101590.75;;;18.09;85.63
77147;BME280;66121;52.584;9.694;2023-06-22T00:40:36;101602.28;;;18.11;86.74
77147;BME280;66121;52.584;9.694;2023-06-22T00:43:02;101605.16;;;18.03;86.50
77147;BME280;66121;52.584;9.694;2023-06-22T00:45:27;101600.75;;;18.06;85.46
77147;BME280;66121;52.584;9.694;2023-06-22T00:47:54;101598.75;;;18.03;84.92
77147;BME280;66121;52.584;9.694;2023-06-22T00:50:22;101601.59;;;17.99;86.34
77147;BME280;66121;52.584;9.694;2023-06-22T00:52:52;101595.28;;;17.92;86.22
77147;BME280;66121;52.584;9.694;2023-06-22T00:55:19;101596.09;;;17.85;85.98
77147;BME280;66121;52.584;9.694;2023-06-22T00:57:46;101587.03;;;17.74;86.43
77147;BME280;66121;52.584;9.694;2023-06-22T01:00:13;101590.66;;;17.71;86.82
77147;BME280;66121;52.584;9.694;2023-06-22T01:02:41;101587.56;;;17.55;87.13
77147;BME280;66121;52.584;9.694;2023-06-22T01:05:06;101579.25;;;17.45;87.16
77147;BME280;66121;52.584;9.694;2023-06-22T01:07:39;101576.94;;;17.32;87.28
77147;BME280;66121;52.584;9.694;2023-06-22T01:10:15;101575.44;;;17.14;88.35
77147;BME280;66121;52.584;9.694;2023-06-22T01:12:49;101567.06;;;17.14;88.65
77147;BME280;66121;52.584;9.694;2023-06-22T01:15:34;101569.81;;;17.21;89.12
77147;BME280;66121;52.584;9.694;2023-06-22T01:18:04;101565.44;;;17.20;87.87
77147;BME280;66121;52.584;9.694;2023-06-22T01:20:30;101567.00;;;17.21;88.89
77147;BME280;66121;52.584;9.694;2023-06-22T01:23:09;101569.84;;;17.10;89.42
77147;BME280;66121;52.584;9.694;2023-06-22T01:25:48;101563.09;;;17.15;89.85
77147;BME280;66121;52.584;9.694;2023-06-22T01:28:44;101565.44;;;17.16;88.96
77147;BME280;66121;52.584;9.694;2023-06-22T01:31:12;101556.28;;;17.19;88.25
77147;BME280;66121;52.584;9.694;2023-06-22T01:33:41;101563.41;;;17.24;88.42
77147;BME280;66121;52.584;9.694;2023-06-22T01:36:07;101545.50;;;17.25;88.83
77147;BME280;66121;52.584;9.694;2023-06-22T01:38:34;101541.53;;;17.22;89.67
77147;BME280;66121;52.584;9.694;2023-06-22T01:41:01;101547.91;;;17.16;89.70
77147;BME280;66121;52.584;9.694;2023-06-22T01:43:27;101539.59;;;17.12;90.08
77147;BME280;66121;52.584;9.694;2023-06-22T01:45:58;101542.75;;;17.14;89.01
77147;BME280;66121;52.584;9.694;2023-06-22T01:48:24;101540.00;;;17.07;89.06
77147;BME280;66121;52.584;9.694;2023-06-22T01:50:51;101548.34;;;17.14;89.72
77147;BME280;66121;52.584;9.694;2023-06-22T01:53:17;101542.38;;;17.12;89.76
77147;BME280;66121;52.584;9.694;2023-06-22T01:55:42;101540.41;;;17.09;90.28
77147;BME280;66121;52.584;9.694;2023-06-22T01:58:08;101548.75;;;17.06;90.44
77147;BME280;66121;52.584;9.694;2023-06-22T02:00:37;101547.97;;;17.09;88.70
77147;BME280;66121;52.584;9.694;2023-06-22T02:03:08;101552.34;;;17.10;88.56
77147;BME280;66121;52.584;9.694;2023-06-22T02:05:38;101549.56;;;17.10;88.26
77147;BME280;66121;52.584;9.694;2023-06-22T02:08:13;101549.94;;;17.08;88.96
77147;BME280;66121;52.584;9.694;2023-06-22T02:10:43;101544.84;;;16.96;89.20
77147;BME280;66121;52.584;9.694;2023-06-22T02:13:10;101543.22;;;17.02;89.16
77147;BME280;66121;52.584;9.694;2023-06-22T02:15:36;101551.59;;;17.02;89.58
77147;BME280;66121;52.584;9.694;2023-06-22T02:18:02;101555.59;;;16.94;89.67
77147;BME280;66121;52.584;9.694;2023-06-22T02:20:28;101552.44;;;16.92;89.38
77147;BME280;66121;52.584;9.694;2023-06-22T02:22:53;101550.03;;;16.94;88.89
77147;BME280;66121;52.584;9.694;2023-06-22T02:25:18;101557.19;;;16.95;89.41
77147;BME280;66121;52.584;9.694;2023-06-22T02:27:45;101552.03;;;16.90;90.45
77147;BME280;66121;52.584;9.694;2023-06-22T02:30:10;101556.03;;;16.86;89.61
77147;BME280;66121;52.584;9.694;2023-06-22T02:32:36;101558.41;;;16.94;88.93
77147;BME280;66121;52.584;9.694;2023-06-22T02:35:01;101548.13;;;16.73;89.60
77147;BME280;66121;52.584;9.694;2023-06-22T02:37:31;101560.00;;;16.92;89.57
77147;BME280;66121;52.584;9.694;2023-06-22T02:39:56;101565.22;;;16.83;88.86
77147;BME280;66121;52.584;9.694;2023-06-22T02:42:22;101553.31;;;16.75;89.06
77147;BME280;66121;52.584;9.694;2023-06-22T02:44:47;101562.44;;;16.83;90.27
77147;BME280;66121;52.584;9.694;2023-06-22T02:47:13;101560.03;;;16.81;90.38
77147;BME280;66121;52.584;9.694;2023-06-22T02:49:38;101566.78;;;16.84;91.51
77147;BME280;66121;52.584;9.694;2023-06-22T02:52:03;101569.19;;;16.78;91.45
77147;BME280;66121;52.584;9.694;2023-06-22T02:54:29;101565.22;;;16.79;91.01
77147;BME280;66121;52.584;9.694;2023-06-22T02:56:54;101574.00;;;16.78;90.09
77147;BME280;66121;52.584;9.694;2023-06-22T02:59:19;101579.63;;;16.56;90.77
77147;BME280;66121;52.584;9.694;2023-06-22T03:01:49;101586.81;;;16.54;89.92
77147;BME280;66121;52.584;9.694;2023-06-22T03:04:15;101582.78;;;16.51;90.45
77147;BME280;66121;52.584;9.694;2023-06-22T03:06:41;101593.94;;;16.58;90.29
77147;BME280;66121;52.584;9.694;2023-06-22T03:09:07;101594.34;;;16.60;89.26
77147;BME280;66121;52.584;9.694;2023-06-22T03:11:33;101594.75;;;16.59;89.92
77147;BME280;66121;52.584;9.694;2023-06-22T03:13:59;101589.59;;;16.57;90.17
77147;BME280;66121;52.584;9.694;2023-06-22T03:16:25;101597.53;;;16.55;90.14
77147;BME280;66121;52.584;9.694;2023-06-22T03:18:50;101596.75;;;16.41;90.29
77147;BME280;66121;52.584;9.694;2023-06-22T03:21:15;101595.97;;;16.37;90.92
77147;BME280;66121;52.584;9.694;2023-06-22T03:23:42;101600.34;;;16.41;90.33
77147;BME280;66121;52.584;9.694;2023-06-22T03:26:08;101598.31;;;16.45;90.11
77147;BME280;66121;52.584;9.694;2023-06-22T03:28:34;101599.13;;;16.49;90.48
77147;BME280;66121;52.584;9.694;2023-06-22T03:30:59;101610.66;;;16.51;89.66
77147;BME280;66121;52.584;9.694;2023-06-22T03:33:25;101604.69;;;16.53;90.19
77147;BME280;66121;52.584;9.694;2023-06-22T03:35:50;101603.88;;;16.63;90.06
77147;BME280;66121;52.584;9.694;2023-06-22T03:38:16;101608.66;;;16.66;90.37
77147;BME280;66121;52.584;9.694;2023-06-22T03:40:41;101599.13;;;16.67;91.04
77147;BME280;66121;52.584;9.694;2023-06-22T03:43:07;101603.06;;;16.73;90.92
77147;BME280;66121;52.584;9.694;2023-06-22T03:45:32;101604.66;;;16.78;91.02
77147;BME280;66121;52.584;9.694;2023-06-22T03:47:57;101600.28;;;16.80;90.58
77147;BME280;66121;52.584;9.694;2023-06-22T03:50:23;101599.88;;;16.78;90.91
77147;BME280;66121;52.584;9.694;2023-06-22T03:52:48;101589.50;;;16.82;90.89
77147;BME280;66121;52.584;9.694;2023-06-22T03:55:13;101593.47;;;16.92;90.53
77147;BME280;66121;52.584;9.694;2023-06-22T03:57:39;101595.03;;;16.93;89.99
77147;BME280;66121;52.584;9.694;2023-06-22T04:00:05;101600.63;;;16.89;91.22
77147;BME280;66121;52.584;9.694;2023-06-22T04:02:33;101603.00;;;16.91;90.30
77147;BME280;66121;52.584;9.694;2023-06-22T04:04:58;101601.03;;;16.88;90.07
77147;BME280;66121;52.584;9.694;2023-06-22T04:07:23;101585.53;;;16.80;89.71
77147;BME280;66121;52.584;9.694;2023-06-22T04:09:49;101596.66;;;16.83;89.65
77147;BME280;66121;52.584;9.694;2023-06-22T04:12:14;101598.66;;;16.86;89.68
77147;BME280;66121;52.584;9.694;2023-06-22T04:14:39;101597.81;;;16.93;89.67
77147;BME280;66121;52.584;9.694;2023-06-22T04:17:04;101597.41;;;17.01;89.86
77147;BME280;66121;52.584;9.694;2023-06-22T04:19:30;101600.09;;;17.15;89.03
77147;BME280;66121;52.584;9.694;2023-06-22T04:21:56;101602.00;;;17.36;88.83
77147;BME280;66121;52.584;9.694;2023-06-22T04:24:21;101595.53;;;17.57;88.71
77147;BME280;66121;52.584;9.694;2023-06-22T04:26:46;101601.38;;;17.80;88.40
77147;BME280;66121;52.584;9.694;2023-06-22T04:29:13;101608.69;;;18.08;87.45
77147;BME280;66121;52.584;9.694;2023-06-22T04:31:38;101614.34;;;18.48;86.93
77147;BME280;66121;52.584;9.694;2023-06-22T04:34:04;101606.78;;;18.83;84.63
77147;BME280;66121;52.584;9.694;2023-06-22T04:36:35;101604.28;;;18.92;82.22
77147;BME280;66121;52.584;9.694;2023-06-22T04:39:05;101600.47;;;19.09;81.21
77147;BME280;66121;52.584;9.694;2023-06-22T04:41:31;101596.75;;;18.85;80.02
77147;BME280;66121;52.584;9.694;2023-06-22T04:44:13;101598.31;;;19.20;80.18
77147;BME280;66121;52.584;9.694;2023-06-22T04:46:39;101599.56;;;19.49;78.46
77147;BME280;66121;52.584;9.694;2023-06-22T04:49:09;101601.78;;;19.61;78.31
77147;BME280;66121;52.584;9.694;2023-06-22T04:51:39;101601.56;;;19.49;77.76
77147;BME280;66121;52.584;9.694;2023-06-22T04:54:05;101603.34;;;19.32;79.36
77147;BME280;66121;52.584;9.694;2023-06-22T04:56:32;101592.59;;;19.27;78.28
77147;BME280;66121;52.584;9.694;2023-06-22T04:58:57;101586.97;;;19.00;78.68
77147;BME280;66121;52.584;9.694;2023-06-22T05:01:23;101594.66;;;18.93;79.76
77147;BME280;66121;52.584;9.694;2023-06-22T05:03:49;101593.84;;;18.96;79.55
77147;BME280;66121;52.584;9.694;2023-06-22T05:06:14;101581.25;;;19.11;79.42
77147;BME280;66121;52.584;9.694;2023-06-22T05:08:40;101591.19;;;19.15;79.92
77147;BME280;66121;52.584;9.694;2023-06-22T05:11:05;101603.59;;;19.14;79.81
77147;BME280;66121;52.584;9.694;2023-06-22T05:13:31;101589.81;;;19.27;78.70
77147;BME280;66121;52.584;9.694;2023-06-22T05:15:57;101603.28;;;19.66;77.27
77147;BME280;66121;52.584;9.694;2023-06-22T05:18:27;101587.63;;;19.95;76.83
77147;BME280;66121;52.584;9.694;2023-06-22T05:20:57;101591.94;;;20.26;75.16
77147;BME280;66121;52.584;9.694;2023-06-22T05:23:26;101588.88;;;20.60;73.55
77147;BME280;66121;52.584;9.694;2023-06-22T05:25:51;101589.81;;;20.53;72.80
77147;BME280;66121;52.584;9.694;2023-06-22T05:28:16;101566.44;;;20.80;71.63
77147;BME280;66121;52.584;9.694;2023-06-22T05:30:42;101590.81;;;21.02;71.57
77147;BME280;66121;52.584;9.694;2023-06-22T05:33:07;101573.31;;;21.34;70.36
77147;BME280;66121;52.584;9.694;2023-06-22T05:35:32;101576.69;;;21.61;69.02
77147;BME280;66121;52.584;9.694;2023-06-22T05:37:57;101575.44;;;21.98;69.38
77147;BME280;66121;52.584;9.694;2023-06-22T05:40:23;101566.53;;;21.83;67.97
77147;BME280;66121;52.584;9.694;2023-06-22T05:42:48;101570.88;;;21.36;68.31
77147;BME280;66121;52.584;9.694;2023-06-22T05:45:13;101569.69;;;21.53;68.79
77147;BME280;66121;52.584;9.694;2023-06-22T05:47:39;101564.66;;;21.77;67.66
77147;BME280;66121;52.584;9.694;2023-06-22T05:50:05;101571.72;;;21.85;68.34
77147;BME280;66121;52.584;9.694;2023-06-22T05:52:33;101566.59;;;21.64;68.02
77147;BME280;66121;52.584;9.694;2023-06-22T05:54:59;101571.94;;;21.42;67.78
77147;BME280;66121;52.584;9.694;2023-06-22T05:57:24;101573.81;;;21.49;68.44
77147;BME280;66121;52.584;9.694;2023-06-22T05:59:49;101578.63;;;21.48;68.41
77147;BME280;66121;52.584;9.694;2023-06-22T06:02:14;101568.28;;;21.77;66.47
77147;BME280;66121;52.584;9.694;2023-06-22T06:04:40;101573.84;;;22.13;65.81
77147;BME280;66121;52.584;9.694;2023-06-22T06:07:05;101574.50;;;22.33;64.57
77147;BME280;66121;52.584;9.694;2023-06-22T06:09:30;101569.00;;;22.87;63.33
77147;BME280;66121;52.584;9.694;2023-06-22T06:11:56;101565.44;;;23.12;62.35
77147;BME280;66121;52.584;9.694;2023-06-22T06:14:21;101572.13;;;23.31;61.80
77147;BME280;66121;52.584;9.694;2023-06-22T06:16:48;101575.59;;;23.22;61.65
77147;BME280;66121;52.584;9.694;2023-06-22T06:19:13;101569.69;;;23.04;61.75
77147;BME280;66121;52.584;9.694;2023-06-22T06:21:39;101557.53;;;22.94;61.28
77147;BME280;66121;52.584;9.694;2023-06-22T06:24:04;101557.31;;;23.01;61.58
77147;BME280;66121;52.584;9.694;2023-06-22T06:26:29;101560.34;;;22.94;61.54
77147;BME280;66121;52.584;9.694;2023-06-22T06:29:00;101561.84;;;23.24;61.75
77147;BME280;66121;52.584;9.694;2023-06-22T06:31:25;101559.97;;;23.59;61.36
77147;BME280;66121;52.584;9.694;2023-06-22T06:33:54;101550.50;;;23.65;61.74
77147;BME280;66121;52.584;9.694;2023-06-22T06:36:19;101547.84;;;23.96;59.41
77147;BME280;66121;52.584;9.694;2023-06-22T06:38:44;101546.94;;;24.12;58.68
77147;BME280;66121;52.584;9.694;2023-06-22T06:41:12;101542.50;;;24.23;58.81
77147;BME280;66121;52.584;9.694;2023-06-22T06:43:38;101550.59;;;24.34;58.32
77147;BME280;66121;52.584;9.694;2023-06-22T06:46:03;101553.16;;;24.41;58.38
77147;BME280;66121;52.584;9.694;2023-06-22T06:48:28;101561.44;;;24.57;57.56
77147;BME280;66121;52.584;9.694;2023-06-22T06:50:54;101553.00;;;24.79;56.40
77147;BME280;66121;52.584;9.694;2023-06-22T06:53:19;101539.56;;;24.83;56.30
77147;BME280;66121;52.584;9.694;2023-06-22T06:55:44;101545.66;;;24.81;56.58
77147;BME280;66121;52.584;9.694;2023-06-22T06:58:10;101542.28;;;24.74;57.24
77147;BME280;66121;52.584;9.694;2023-06-22T07:00:38;101539.88;;;25.16;55.74
77147;BME280;66121;52.584;9.694;2023-06-22T07:03:04;101544.59;;;25.19;55.38
77147;BME280;66121;52.584;9.694;2023-06-22T07:05:29;101543.84;;;25.58;54.94
77147;BME280;66121;52.584;9.694;2023-06-22T07:07:54;101547.41;;;25.80;54.58
77147;BME280;66121;52.584;9.694;2023-06-22T07:10:20;101544.88;;;25.91;54.63
77147;BME280;66121;52.584;9.694;2023-06-22T07:12:45;101542.13;;;26.18;52.83
77147;BME280;66121;52.584;9.694;2023-06-22T07:15:11;101539.91;;;26.13;51.85
77147;BME280;66121;52.584;9.694;2023-06-22T07:17:38;101542.44;;;26.48;52.71
77147;BME280;66121;52.584;9.694;2023-06-22T07:20:07;101537.09;;;26.32;51.44
77147;BME280;66121;52.584;9.694;2023-06-22T07:22:36;101528.56;;;26.68;51.90
77147;BME280;66121;52.584;9.694;2023-06-22T07:25:02;101538.19;;;26.89;51.03
77147;BME280;66121;52.584;9.694;2023-06-22T07:27:37;101538.53;;;26.54;50.01
77147;BME280;66121;52.584;9.694;2023-06-22T07:30:04;101546.34;;;26.68;50.65
77147;BME280;66121;52.584;9.694;2023-06-22T07:32:29;101540.66;;;27.05;49.54
77147;BME280;66121;52.584;9.694;2023-06-22T07:34:55;101537.22;;;26.82;50.76
77147;BME280;66121;52.584;9.694;2023-06-22T07:37:20;101536.28;;;26.95;49.99
77147;BME280;66121;52.584;9.694;2023-06-22T07:39:46;101531.28;;;27.22;49.89
77147;BME280;66121;52.584;9.694;2023-06-22T07:42:11;101532.25;;;27.61;49.93
77147;BME280;66121;52.584;9.694;2023-06-22T07:44:36;101521.28;;;27.12;49.89
77147;BME280;66121;52.584;9.694;2023-06-22T07:47:01;101527.78;;;27.36;49.44
77147;BME280;66121;52.584;9.694;2023-06-22T07:49:28;101508.41;;;27.44;48.57
77147;BME280;66121;52.584;9.694;2023-06-22T07:51:53;101525.38;;;28.09;48.13
77147;BME280;66121;52.584;9.694;2023-06-22T07:54:18;101534.09;;;28.59;48.78
77147;BME280;66121;52.584;9.694;2023-06-22T07:56:44;101541.09;;;29.02;47.56
77147;BME280;66121;52.584;9.694;2023-06-22T07:59:09;101536.25;;;29.37;45.29
77147;BME280;66121;52.584;9.694;2023-06-22T08:01:34;101533.44;;;29.08;45.18
77147;BME280;66121;52.584;9.694;2023-06-22T08:03:59;101534.63;;;29.01;44.99
77147;BME280;66121;52.584;9.694;2023-06-22T08:06:25;101524.41;;;29.09;45.42
77147;BME280;66121;52.584;9.694;2023-06-22T08:08:50;101518.91;;;29.70;44.97
77147;BME280;66121;52.584;9.694;2023-06-22T08:11:17;101512.44;;;29.49;44.72
77147;BME280;66121;52.584;9.694;2023-06-22T08:13:43;101527.72;;;29.72;45.40
77147;BME280;66121;52.584;9.694;2023-06-22T08:16:08;101530.84;;;29.88;44.57
77147;BME280;66121;52.584;9.694;2023-06-22T08:18:33;101523.38;;;29.56;45.13
77147;BME280;66121;52.584;9.694;2023-06-22T08:20:59;101527.44;;;29.35;44.67
77147;BME280;66121;52.584;9.694;2023-06-22T08:23:24;101524.94;;;29.57;46.30
77147;BME280;66121;52.584;9.694;2023-06-22T08:25:49;101520.56;;;29.76;44.02
77147;BME280;66121;52.584;9.694;2023-06-22T08:28:15;101516.94;;;29.76;45.01
77147;BME280;66121;52.584;9.694;2023-06-22T08:30:40;101517.66;;;30.51;43.71
77147;BME280;66121;52.584;9.694;2023-06-22T08:33:06;101510.25;;;31.16;42.59
77147;BME280;66121;52.584;9.694;2023-06-22T08:35:31;101521.34;;;30.57;42.92
77147;BME280;66121;52.584;9.694;2023-06-22T08:37:56;101510.94;;;30.80;43.17
77147;BME280;66121;52.584;9.694;2023-06-22T08:40:23;101516.03;;;30.45;42.84
77147;BME280;66121;52.584;9.694;2023-06-22T08:42:49;101514.75;;;30.72;43.78
77147;BME280;66121;52.584;9.694;2023-06-22T08:45:15;101518.13;;;29.34;44.26
77147;BME280;66121;52.584;9.694;2023-06-22T08:47:41;101515.91;;;28.80;46.44
77147;BME280;66121;52.584;9.694;2023-06-22T08:50:07;101504.16;;;28.87;46.71
77147;BME280;66121;52.584;9.694;2023-06-22T08:52:33;101499.13;;;28.53;46.58
77147;BME280;66121;52.584;9.694;2023-06-22T08:54:59;101527.75;;;28.64;47.08
77147;BME280;66121;52.584;9.694;2023-06-22T08:57:24;101508.00;;;28.84;48.43
77147;BME280;66121;52.584;9.694;2023-06-22T08:59:49;101522.47;;;29.01;48.01
77147;BME280;66121;52.584;9.694;2023-06-22T09:02:17;101509.53;;;28.70;48.75
77147;BME280;66121;52.584;9.694;2023-06-22T09:04:43;101511.81;;;28.28;48.57
77147;BME280;66121;52.584;9.694;2023-06-22T09:07:08;101507.66;;;28.67;48.04
77147;BME280;66121;52.584;9.694;2023-06-22T09:09:33;101496.22;;;28.91;47.80
77147;BME280;66121;52.584;9.694;2023-06-22T09:11:58;101509.72;;;28.67;48.34
77147;BME280;66121;52.584;9.694;2023-06-22T09:14:24;101501.66;;;29.09;47.39
77147;BME280;66121;52.584;9.694;2023-06-22T09:16:49;101504.63;;;28.56;47.39
77147;BME280;66121;52.584;9.694;2023-06-22T09:19:14;101500.25;;;28.99;48.02
77147;BME280;66121;52.584;9.694;2023-06-22T09:21:40;101506.97;;;29.16;48.28
77147;BME280;66121;52.584;9.694;2023-06-22T09:24:05;101475.16;;;28.83;47.53
77147;BME280;66121;52.584;9.694;2023-06-22T09:26:31;101487.78;;;29.11;47.21
77147;BME280;66121;52.584;9.694;2023-06-22T09:28:57;101476.97;;;29.15;46.47
77147;BME280;66121;52.584;9.694;2023-06-22T09:31:23;101479.09;;;28.71;48.13
77147;BME280;66121;52.584;9.694;2023-06-22T09:33:51;101475.94;;;28.84;49.35
77147;BME280;66121;52.584;9.694;2023-06-22T09:36:17;101474.88;;;28.66;48.09
77147;BME280;66121;52.584;9.694;2023-06-22T09:38:42;101465.81;;;28.39;48.66
77147;BME280;66121;52.584;9.694;2023-06-22T09:41:07;101468.78;;;28.59;49.38
77147;BME280;66121;52.584;9.694;2023-06-22T09:43:33;101471.72;;;28.94;47.78
77147;BME280;66121;52.584;9.694;2023-06-22T09:46:02;101452.00;;;29.19;47.73
77147;BME280;66121;52.584;9.694;2023-06-22T09:48:28;101451.16;;;28.99;47.78
77147;BME280;66121;52.584;9.694;2023-06-22T09:50:55;101447.69;;;29.24;49.10
77147;BME280;66121;52.584;9.694;2023-06-22T09:53:20;101462.59;;;28.90;48.71
77147;BME280;66121;52.584;9.694;2023-06-22T09:55:46;101452.81;;;28.47;48.61
77147;BME280;66121;52.584;9.694;2023-06-22T09:58:11;101454.25;;;28.42;49.69
77147;BME280;66121;52.584;9.694;2023-06-22T10:00:37;101451.34;;;28.51;49.01
77147;BME280;66121;52.584;9.694;2023-06-22T10:03:02;101453.81;;;28.73;49.17
77147;BME280;66121;52.584;9.694;2023-06-22T10:05:27;101455.28;;;28.68;50.35
77147;BME280;66121;52.584;9.694;2023-06-22T10:07:53;101451.34;;;28.81;50.16
77147;BME280;66121;52.584;9.694;2023-06-22T10:10:18;101447.84;;;28.71;48.69
77147;BME280;66121;52.584;9.694;2023-06-22T10:13:08;101439.94;;;28.22;50.56
77147;BME280;66121;52.584;9.694;2023-06-22T10:15:36;101436.75;;;28.58;49.94
77147;BME280;66121;52.584;9.694;2023-06-22T10:18:02;101438.09;;;28.34;49.26
77147;BME280;66121;52.584;9.694;2023-06-22T10:20:28;101446.13;;;28.50;49.66
77147;BME280;66121;52.584;9.694;2023-06-22T10:22:53;101440.19;;;28.77;47.95
77147;BME280;66121;52.584;9.694;2023-06-22T10:25:19;101446.25;;;28.70;49.00
77147;BME280;66121;52.584;9.694;2023-06-22T10:27:44;101435.16;;;29.01;48.89
77147;BME280;66121;52.584;9.694;2023-06-22T10:30:11;101430.34;;;29.07;48.10
77147;BME280;66121;52.584;9.694;2023-06-22T10:32:38;101433.69;;;29.06;49.01
77147;BME280;66121;52.584;9.694;2023-06-22T10:35:04;101423.16;;;29.12;48.44
77147;BME280;66121;52.584;9.694;2023-06-22T10:37:29;101427.00;;;29.09;47.67
77147;BME280;66121;52.584;9.694;2023-06-22T10:39:54;101412.06;;;28.94;46.95
77147;BME280;66121;52.584;9.694;2023-06-22T10:42:20;101410.69;;;28.74;49.74
77147;BME280;66121;52.584;9.694;2023-06-22T10:44:45;101424.13;;;28.89;49.73
77147;BME280;66121;52.584;9.694;2023-06-22T10:47:11;101411.41;;;28.84;49.51
77147;BME280;66121;52.584;9.694;2023-06-22T10:49:40;101408.34;;;28.73;49.93
77147;BME280;66121;52.584;9.694;2023-06-22T10:52:07;101409.72;;;28.78;49.17
77147;BME280;66121;52.584;9.694;2023-06-22T10:54:33;101413.09;;;28.61;50.32
77147;BME280;66121;52.584;9.694;2023-06-22T10:56:59;101406.41;;;28.79;49.94
77147;BME280;66121;52.584;9.694;2023-06-22T10:59:24;101409.41;;;28.90;50.61
77147;BME280;66121;52.584;9.694;2023-06-22T11:01:51;101409.44;;;28.76;49.43
77147;BME280;66121;52.584;9.694;2023-06-22T11:04:16;101404.41;;;28.85;47.99
77147;BME280;66121;52.584;9.694;2023-06-22T11:06:43;101403.47;;;28.73;48.25
77147;BME280;66121;52.584;9.694;2023-06-22T11:09:08;101408.44;;;28.93;48.66
77147;BME280;66121;52.584;9.694;2023-06-22T11:11:33;101403.84;;;29.16;49.66
77147;BME280;66121;52.584;9.694;2023-06-22T11:13:58;101401.00;;;29.51;48.93
77147;BME280;66121;52.584;9.694;2023-06-22T11:16:24;101406.97;;;29.93;48.25
77147;BME280;66121;52.584;9.694;2023-06-22T11:18:49;101395.16;;;30.00;48.00
77147;BME280;66121;52.584;9.694;2023-06-22T11:21:14;101400.22;;;29.90;48.77
77147;BME280;66121;52.584;9.694;2023-06-22T11:23:41;101390.41;;;29.91;47.85
77147;BME280;66121;52.584;9.694;2023-06-22T11:26:07;101390.84;;;29.84;47.07
77147;BME280;66121;52.584;9.694;2023-06-22T11:28:32;101395.19;;;29.80;48.31
77147;BME280;66121;52.584;9.694;2023-06-22T11:30:57;101394.69;;;29.81;47.76
77147;BME280;66121;52.584;9.694;2023-06-22T11:33:22;101392.75;;;29.32;48.57
77147;BME280;66121;52.584;9.694;2023-06-22T11:35:48;101373.13;;;29.55;48.26
77147;BME280;66121;52.584;9.694;2023-06-22T11:38:13;101380.03;;;29.48;47.94
77147;BME280;66121;52.584;9.694;2023-06-22T11:40:38;101377.97;;;29.89;47.79
77147;BME280;66121;52.584;9.694;2023-06-22T11:43:04;101375.47;;;29.96;47.22
77147;BME280;66121;52.584;9.694;2023-06-22T11:45:29;101368.22;;;30.21;46.99
77147;BME280;66121;52.584;9.694;2023-06-22T11:47:54;101363.66;;;30.09;48.17
77147;BME280;66121;52.584;9.694;2023-06-22T11:50:20;101363.28;;;30.22;46.59
77147;BME280;66121;52.584;9.694;2023-06-22T11:52:45;101369.75;;;30.22;47.36
77147;BME280;66121;52.584;9.694;2023-06-22T11:55:10;101360.81;;;30.09;47.34
77147;BME280;66121;52.584;9.694;2023-06-22T11:57:37;101350.50;;;30.12;47.66
77147;BME280;66121;52.584;9.694;2023-06-22T12:00:04;101349.84;;;29.96;47.13
77147;BME280;66121;52.584;9.694;2023-06-22T12:02:41;101344.88;;;29.91;46.75
77147;BME280;66121;52.584;9.694;2023-06-22T12:05:06;101337.41;;;29.94;47.32
77147;BME280;66121;52.584;9.694;2023-06-22T12:07:33;101342.19;;;29.62;46.91
77147;BME280;66121;52.584;9.694;2023-06-22T12:09:58;101340.75;;;29.72;48.18
77147;BME280;66121;52.584;9.694;2023-06-22T12:12:24;101328.63;;;29.52;46.92
77147;BME280;66121;52.584;9.694;2023-06-22T12:14:49;101329.75;;;29.40;49.23
77147;BME280;66121;52.584;9.694;2023-06-22T12:17:14;101322.84;;;29.66;46.93
77147;BME280;66121;52.584;9.694;2023-06-22T12:19:40;101321.09;;;29.74;48.44
77147;BME280;66121;52.584;9.694;2023-06-22T12:22:05;101315.41;;;29.94;46.88
77147;BME280;66121;52.584;9.694;2023-06-22T12:24:30;101298.63;;;29.51;46.72
77147;BME280;66121;52.584;9.694;2023-06-22T12:26:55;101292.38;;;29.72;47.01
77147;BME280;66121;52.584;9.694;2023-06-22T12:29:21;101291.81;;;29.88;46.67
77147;BME280;66121;52.584;9.694;2023-06-22T12:31:46;101307.16;;;29.96;46.02
77147;BME280;66121;52.584;9.694;2023-06-22T12:34:11;101301.78;;;30.04;45.58
77147;BME280;66121;52.584;9.694;2023-06-22T12:36:37;101296.25;;;29.95;45.39
77147;BME280;66121;52.584;9.694;2023-06-22T12:39:02;101290.28;;;30.19;45.41
77147;BME280;66121;52.584;9.694;2023-06-22T12:41:27;101289.34;;;30.64;45.96
77147;BME280;66121;52.584;9.694;2023-06-22T12:43:53;101280.88;;;30.75;44.86
77147;BME280;66121;52.584;9.694;2023-06-22T12:46:18;101291.72;;;30.71;44.68